sensor_id;sensor_type;location;lat;lon;timestamp;pressure;altitude;pressure_sealevel;temperature;humidity
47785;BME280;35233;55.686;37.848;2023-04-06T00:00:55;100453.44;;;19.61;42.96
47785;BME280;35233;55.686;37.848;2023-04-06T00:03:21;100448.31;;;19.56;43.14
47785;BME280;35233;55.686;37.848;2023-04-06T00:05:47;100447.34;;;19.57;43.21
47785;BME280;35233;55.686;37.848;2023-04-06T00:08:12;100445.47;;;19.59;42.83
47785;BME280;35233;55.686;37.848;2023-04-06T00:10:38;100448.41;;;19.55;43.23
47785;BME280;35233;55.686;37.848;2023-04-06T00:13:06;100437.81;;;19.52;43.00
47785;BME280;35233;55.686;37.848;2023-04-06T00:15:34;100443.34;;;19.49;43.19
47785;BME280;35233;55.686;37.848;2023-04-06T00:17:59;100450.28;;;19.53;42.82
47785;BME280;35233;55.686;37.848;2023-04-06T00:20:25;100457.69;;;19.48;43.00
47785;BME280;35233;55.686;37.848;2023-04-06T00:22:51;100448.88;;;19.45;43.18
47785;BME280;35233;55.686;37.848;2023-04-06T00:25:16;100454.31;;;19.44;43.19
47785;BME280;35233;55.686;37.848;2023-04-06T00:27:42;100444.69;;;19.40;43.29
47785;BME280;35233;55.686;37.848;2023-04-06T00:30:08;100451.81;;;19.41;43.01
47785;BME280;35233;55.686;37.848;2023-04-06T00:32:34;100449.88;;;19.43;43.13
47785;BME280;35233;55.686;37.848;2023-04-06T00:35:02;100448.16;;;19.42;42.90
47785;BME280;35233;55.686;37.848;2023-04-06T00:37:28;100457.00;;;19.44;43.00
47785;BME280;35233;55.686;37.848;2023-04-06T00:39:53;100445.75;;;19.37;43.13
47785;BME280;35233;55.686;37.848;2023-04-06T00:42:20;100452.03;;;19.36;43.04
47785;BME280;35233;55.686;37.848;2023-04-06T00:44:55;100451.22;;;19.34;42.89
47785;BME280;35233;55.686;37.848;2023-04-06T00:47:21;100439.97;;;19.28;43.09
47785;BME280;35233;55.686;37.848;2023-04-06T00:49:47;100446.66;;;19.36;42.80
47785;BME280;35233;55.686;37.848;2023-04-06T00:52:13;100446.75;;;19.35;43.26
47785;BME280;35233;55.686;37.848;2023-04-06T00:54:38;100447.78;;;19.32;43.18
47785;BME280;35233;55.686;37.848;2023-04-06T00:57:05;100440.13;;;19.25;42.96
47785;BME280;35233;55.686;37.848;2023-04-06T00:59:31;100442.75;;;19.26;43.12
47785;BME280;35233;55.686;37.848;2023-04-06T01:01:57;100439.28;;;19.24;43.07
47785;BME280;35233;55.686;37.848;2023-04-06T01:04:23;100439.06;;;19.29;43.10
47785;BME280;35233;55.686;37.848;2023-04-06T01:06:49;100437.63;;;19.21;42.83
47785;BME280;35233;55.686;37.848;2023-04-06T01:09:16;100439.44;;;19.21;43.06
47785;BME280;35233;55.686;37.848;2023-04-06T01:11:42;100436.13;;;19.16;43.18
47785;BME280;35233;55.686;37.848;2023-04-06T01:14:07;100442.13;;;19.21;43.25
47785;BME280;35233;55.686;37.848;2023-04-06T01:16:33;100445.81;;;19.18;43.08
47785;BME280;35233;55.686;37.848;2023-04-06T01:18:59;100425.94;;;19.05;43.34
47785;BME280;35233;55.686;37.848;2023-04-06T01:21:25;100445.81;;;19.18;43.08
47785;BME280;35233;55.686;37.848;2023-04-06T01:23:50;100431.63;;;19.16;42.90
47785;BME280;35233;55.686;37.848;2023-04-06T01:26:16;100440.69;;;19.14;42.80
47785;BME280;35233;55.686;37.848;2023-04-06T01:28:42;100444.41;;;19.11;43.05
47785;BME280;35233;55.686;37.848;2023-04-06T01:31:08;100448.97;;;19.09;43.22
47785;BME280;35233;55.686;37.848;2023-04-06T01:33:34;100439.34;;;19.05;43.52
47785;BME280;35233;55.686;37.848;2023-04-06T01:35:59;100433.28;;;19.02;42.85
47785;BME280;35233;55.686;37.848;2023-04-06T01:38:25;100441.94;;;19.07;42.98
47785;BME280;35233;55.686;37.848;2023-04-06T01:40:52;100444.56;;;19.08;42.97
47785;BME280;35233;55.686;37.848;2023-04-06T01:43:17;100436.19;;;18.97;42.96
47785;BME280;35233;55.686;37.848;2023-04-06T01:45:43;100438.78;;;18.98;42.92
47785;BME280;35233;55.686;37.848;2023-04-06T01:48:08;100439.50;;;19.02;42.94
47785;BME280;35233;55.686;37.848;2023-04-06T01:50:34;100439.59;;;19.00;43.02
47785;BME280;35233;55.686;37.848;2023-04-06T01:52:59;100443.97;;;19.02;42.80
47785;BME280;35233;55.686;37.848;2023-04-06T01:55:25;100437.22;;;18.94;43.24
47785;BME280;35233;55.686;37.848;2023-04-06T01:57:51;100435.63;;;18.90;43.30
47785;BME280;35233;55.686;37.848;2023-04-06T02:00:16;100446.03;;;18.96;42.93
47785;BME280;35233;55.686;37.848;2023-04-06T02:02:42;100442.56;;;18.94;42.91
47785;BME280;35233;55.686;37.848;2023-04-06T02:05:08;100446.91;;;18.97;42.96
47785;BME280;35233;55.686;37.848;2023-04-06T02:07:34;100440.13;;;18.90;42.82
47785;BME280;35233;55.686;37.848;2023-04-06T02:09:59;100447.22;;;18.91;43.05
47785;BME280;35233;55.686;37.848;2023-04-06T02:12:25;100435.44;;;18.76;42.98
47785;BME280;35233;55.686;37.848;2023-04-06T02:14:50;100454.22;;;18.93;42.92
47785;BME280;35233;55.686;37.848;2023-04-06T02:17:16;100452.78;;;18.86;42.76
47785;BME280;35233;55.686;37.848;2023-04-06T02:19:42;100452.00;;;18.84;43.22
47785;BME280;35233;55.686;37.848;2023-04-06T02:22:07;100457.19;;;18.87;43.22
47785;BME280;35233;55.686;37.848;2023-04-06T02:24:32;100452.25;;;18.80;43.03
47785;BME280;35233;55.686;37.848;2023-04-06T02:26:58;100454.97;;;18.78;43.12
47785;BME280;35233;55.686;37.848;2023-04-06T02:29:24;100462.06;;;18.79;43.01
47785;BME280;35233;55.686;37.848;2023-04-06T02:31:49;100464.72;;;18.79;42.95
47785;BME280;35233;55.686;37.848;2023-04-06T02:34:15;100458.53;;;18.78;43.20
47785;BME280;35233;55.686;37.848;2023-04-06T02:36:44;100467.41;;;18.79;42.90
47785;BME280;35233;55.686;37.848;2023-04-06T02:39:10;100462.22;;;18.76;43.07
47785;BME280;35233;55.686;37.848;2023-04-06T02:41:36;100461.47;;;18.72;43.22
47785;BME280;35233;55.686;37.848;2023-04-06T02:44:01;100468.63;;;18.72;43.15
47785;BME280;35233;55.686;37.848;2023-04-06T02:46:27;100466.81;;;18.72;43.00
47785;BME280;35233;55.686;37.848;2023-04-06T02:48:52;100459.81;;;18.70;42.68
47785;BME280;35233;55.686;37.848;2023-04-06T02:51:18;100462.31;;;18.73;42.96
47785;BME280;35233;55.686;37.848;2023-04-06T02:53:43;100474.00;;;18.72;42.74
47785;BME280;35233;55.686;37.848;2023-04-06T02:56:09;100466.91;;;18.71;42.95
47785;BME280;35233;55.686;37.848;2023-04-06T02:58:34;100483.75;;;18.73;42.75
47785;BME280;35233;55.686;37.848;2023-04-06T03:01:00;100470.81;;;18.64;42.83
47785;BME280;35233;55.686;37.848;2023-04-06T03:03:25;100465.56;;;18.62;42.66
47785;BME280;35233;55.686;37.848;2023-04-06T03:05:51;100488.22;;;18.72;42.57
47785;BME280;35233;55.686;37.848;2023-04-06T03:08:16;100486.56;;;18.70;42.90
47785;BME280;35233;55.686;37.848;2023-04-06T03:10:42;100489.09;;;18.73;42.86
47785;BME280;35233;55.686;37.848;2023-04-06T03:13:07;100487.53;;;18.69;42.48
47785;BME280;35233;55.686;37.848;2023-04-06T03:15:33;100486.66;;;18.68;42.54
47785;BME280;35233;55.686;37.848;2023-04-06T03:17:58;100476.88;;;18.67;42.70
47785;BME280;35233;55.686;37.848;2023-04-06T03:20:24;100488.53;;;18.66;42.77
47785;BME280;35233;55.686;37.848;2023-04-06T03:22:49;100497.28;;;18.70;42.73
47785;BME280;35233;55.686;37.848;2023-04-06T03:25:15;100497.91;;;18.76;42.32
47785;BME280;35233;55.686;37.848;2023-04-06T03:27:41;100464.25;;;18.52;42.32
47785;BME280;35233;55.686;37.848;2023-04-06T03:30:06;100495.38;;;18.73;42.33
47785;BME280;35233;55.686;37.848;2023-04-06T03:32:32;100506.00;;;18.75;42.58
47785;BME280;35233;55.686;37.848;2023-04-06T03:34:57;100492.88;;;18.69;42.75
47785;BME280;35233;55.686;37.848;2023-04-06T03:37:23;100504.13;;;18.77;42.45
47785;BME280;35233;55.686;37.848;2023-04-06T03:39:48;100506.94;;;18.74;42.30
47785;BME280;35233;55.686;37.848;2023-04-06T03:42:14;100508.59;;;18.76;42.43
47785;BME280;35233;55.686;37.848;2023-04-06T03:44:39;100515.69;;;18.77;42.35
47785;BME280;35233;55.686;37.848;2023-04-06T03:47:05;100510.19;;;18.81;42.41
47785;BME280;35233;55.686;37.848;2023-04-06T03:49:30;100501.50;;;18.75;42.30
47785;BME280;35233;55.686;37.848;2023-04-06T03:51:56;100512.91;;;18.79;42.46
47785;BME280;35233;55.686;37.848;2023-04-06T03:54:22;100508.53;;;18.78;42.13
47785;BME280;35233;55.686;37.848;2023-04-06T03:56:47;100517.34;;;18.80;42.21
47785;BME280;35233;55.686;37.848;2023-04-06T03:59:13;100524.28;;;18.84;42.54
47785;BME280;35233;55.686;37.848;2023-04-06T04:01:38;100520.84;;;18.82;42.36
47785;BME280;35233;55.686;37.848;2023-04-06T04:04:04;100520.94;;;18.79;42.47
47785;BME280;35233;55.686;37.848;2023-04-06T04:06:30;100531.16;;;18.90;42.35
47785;BME280;35233;55.686;37.848;2023-04-06T04:08:55;100533.53;;;18.96;42.06
47785;BME280;35233;55.686;37.848;2023-04-06T04:11:21;100528.25;;;18.94;41.99
47785;BME280;35233;55.686;37.848;2023-04-06T04:13:47;100522.31;;;18.88;41.85
47785;BME280;35233;55.686;37.848;2023-04-06T04:16:12;100531.72;;;18.96;42.10
47785;BME280;35233;55.686;37.848;2023-04-06T04:18:38;100527.31;;;18.95;41.93
47785;BME280;35233;55.686;37.848;2023-04-06T04:21:03;100542.22;;;19.01;41.71
47785;BME280;35233;55.686;37.848;2023-04-06T04:23:29;100527.25;;;18.97;42.05
47785;BME280;35233;55.686;37.848;2023-04-06T04:25:55;100531.34;;;19.04;42.11
47785;BME280;35233;55.686;37.848;2023-04-06T04:28:20;100527.88;;;19.02;41.83
47785;BME280;35233;55.686;37.848;2023-04-06T04:30:46;100539.38;;;19.04;41.79
47785;BME280;35233;55.686;37.848;2023-04-06T04:33:11;100539.94;;;19.11;41.58
47785;BME280;35233;55.686;37.848;2023-04-06T04:35:37;100532.06;;;19.08;41.45
47785;BME280;35233;55.686;37.848;2023-04-06T04:38:02;100538.75;;;19.16;41.01
47785;BME280;35233;55.686;37.848;2023-04-06T04:40:28;100543.75;;;19.24;40.68
47785;BME280;35233;55.686;37.848;2023-04-06T04:42:54;100528.44;;;19.09;40.80
47785;BME280;35233;55.686;37.848;2023-04-06T04:45:19;100531.75;;;19.14;40.49
47785;BME280;35233;55.686;37.848;2023-04-06T04:47:44;100535.56;;;19.44;39.96
47785;BME280;35233;55.686;37.848;2023-04-06T04:50:10;100543.38;;;19.32;40.02
47785;BME280;35233;55.686;37.848;2023-04-06T04:52:37;100545.78;;;19.19;40.57
47785;BME280;35233;55.686;37.848;2023-04-06T04:55:03;100504.00;;;18.97;40.47
47785;BME280;35233;55.686;37.848;2023-04-06T04:57:29;100541.44;;;19.16;40.43
47785;BME280;35233;55.686;37.848;2023-04-06T04:59:54;100536.22;;;19.13;40.09
47785;BME280;35233;55.686;37.848;2023-04-06T05:02:20;100536.22;;;20.51;39.32
47785;BME280;35233;55.686;37.848;2023-04-06T05:04:45;100529.53;;;21.21;37.60
47785;BME280;35233;55.686;37.848;2023-04-06T05:07:11;100536.50;;;21.56;36.82
47785;BME280;35233;55.686;37.848;2023-04-06T05:09:36;100525.88;;;21.68;36.51
47785;BME280;35233;55.686;37.848;2023-04-06T05:12:02;100508.69;;;21.71;36.73
47785;BME280;35233;55.686;37.848;2023-04-06T05:14:28;100527.75;;;21.97;36.23
47785;BME280;35233;55.686;37.848;2023-04-06T05:16:54;100526.69;;;21.99;36.56
47785;BME280;35233;55.686;37.848;2023-04-06T05:19:20;100537.84;;;22.07;36.45
47785;BME280;35233;55.686;37.848;2023-04-06T05:21:46;100536.69;;;22.11;36.59
47785;BME280;35233;55.686;37.848;2023-04-06T05:24:15;100524.59;;;22.19;36.51
47785;BME280;35233;55.686;37.848;2023-04-06T05:26:41;100527.88;;;22.24;36.49
47785;BME280;35233;55.686;37.848;2023-04-06T05:29:14;100537.41;;;22.29;36.48
47785;BME280;35233;55.686;37.848;2023-04-06T05:31:42;100541.16;;;22.41;36.01
47785;BME280;35233;55.686;37.848;2023-04-06T05:34:14;100532.78;;;22.46;36.37
47785;BME280;35233;55.686;37.848;2023-04-06T05:36:39;100534.31;;;22.50;36.19
47785;BME280;35233;55.686;37.848;2023-04-06T05:39:14;100536.88;;;22.51;35.85
47785;BME280;35233;55.686;37.848;2023-04-06T05:41:40;100541.22;;;22.54;35.99
47785;BME280;35233;55.686;37.848;2023-04-06T05:44:05;100536.31;;;22.60;35.79
47785;BME280;35233;55.686;37.848;2023-04-06T05:46:31;100540.81;;;22.60;35.66
47785;BME280;35233;55.686;37.848;2023-04-06T05:48:56;100534.75;;;22.71;35.83
47785;BME280;35233;55.686;37.848;2023-04-06T05:51:22;100522.47;;;22.67;35.19
47785;BME280;35233;55.686;37.848;2023-04-06T05:53:48;100529.06;;;22.75;35.51
47785;BME280;35233;55.686;37.848;2023-04-06T05:56:13;100529.25;;;22.87;35.52
47785;BME280;35233;55.686;37.848;2023-04-06T05:58:38;100527.63;;;22.84;35.62
47785;BME280;35233;55.686;37.848;2023-04-06T06:01:04;100532.69;;;22.89;35.69
47785;BME280;35233;55.686;37.848;2023-04-06T06:03:30;100542.31;;;22.93;35.47
47785;BME280;35233;55.686;37.848;2023-04-06T06:06:00;100538.63;;;22.94;35.43
47785;BME280;35233;55.686;37.848;2023-04-06T06:08:26;100530.75;;;22.91;35.59
47785;BME280;35233;55.686;37.848;2023-04-06T06:10:52;100533.94;;;22.97;35.62
47785;BME280;35233;55.686;37.848;2023-04-06T06:13:17;100534.72;;;22.99;35.77
47785;BME280;35233;55.686;37.848;2023-04-06T06:18:30;100532.19;;;23.11;35.96
47785;BME280;35233;55.686;37.848;2023-04-06T06:20:55;100530.34;;;23.11;35.95
47785;BME280;35233;55.686;37.848;2023-04-06T06:23:21;100524.19;;;23.09;35.77
47785;BME280;35233;55.686;37.848;2023-04-06T06:25:47;100532.94;;;23.13;35.91
47785;BME280;35233;55.686;37.848;2023-04-06T06:28:31;100525.81;;;23.12;35.52
47785;BME280;35233;55.686;37.848;2023-04-06T06:30:57;100530.56;;;23.21;35.83
47785;BME280;35233;55.686;37.848;2023-04-06T06:33:23;100533.06;;;23.24;36.01
47785;BME280;35233;55.686;37.848;2023-04-06T06:35:49;100523.25;;;23.23;35.61
47785;BME280;35233;55.686;37.848;2023-04-06T06:38:34;100539.59;;;23.34;35.50
47785;BME280;35233;55.686;37.848;2023-04-06T06:41:00;100530.00;;;23.30;35.43
47785;BME280;35233;55.686;37.848;2023-04-06T06:43:26;100533.00;;;23.38;35.22
47785;BME280;35233;55.686;37.848;2023-04-06T06:45:51;100531.00;;;23.42;35.17
47785;BME280;35233;55.686;37.848;2023-04-06T06:48:17;100535.28;;;23.44;35.22
47785;BME280;35233;55.686;37.848;2023-04-06T06:50:42;100531.44;;;23.48;35.26
47785;BME280;35233;55.686;37.848;2023-04-06T06:53:08;100524.63;;;23.43;35.20
47785;BME280;35233;55.686;37.848;2023-04-06T06:55:33;100509.50;;;23.40;35.05
47785;BME280;35233;55.686;37.848;2023-04-06T07:00:43;100535.22;;;23.59;35.24
47785;BME280;35233;55.686;37.848;2023-04-06T07:05:52;100519.03;;;23.59;35.42
47785;BME280;35233;55.686;37.848;2023-04-06T07:11:05;100522.34;;;23.77;35.64
47785;BME280;35233;55.686;37.848;2023-04-06T07:13:31;100508.41;;;23.70;35.67
47785;BME280;35233;55.686;37.848;2023-04-06T07:15:56;100515.19;;;23.76;35.57
47785;BME280;35233;55.686;37.848;2023-04-06T07:18:22;100507.31;;;23.72;35.51
47785;BME280;35233;55.686;37.848;2023-04-06T07:20:48;100518.44;;;23.81;35.67
47785;BME280;35233;55.686;37.848;2023-04-06T07:23:13;100509.38;;;23.82;35.66
47785;BME280;35233;55.686;37.848;2023-04-06T07:25:39;100514.03;;;23.80;35.49
47785;BME280;35233;55.686;37.848;2023-04-06T07:28:11;100514.56;;;23.85;35.34
47785;BME280;35233;55.686;37.848;2023-04-06T07:30:38;100511.84;;;23.85;35.25
47785;BME280;35233;55.686;37.848;2023-04-06T07:33:04;100520.41;;;23.91;35.58
47785;BME280;35233;55.686;37.848;2023-04-06T07:35:30;100521.13;;;23.93;35.43
47785;BME280;35233;55.686;37.848;2023-04-06T07:37:56;100507.13;;;23.88;35.31
47785;BME280;35233;55.686;37.848;2023-04-06T07:40:22;100522.66;;;23.98;35.30
47785;BME280;35233;55.686;37.848;2023-04-06T07:42:48;100524.16;;;24.02;35.48
47785;BME280;35233;55.686;37.848;2023-04-06T07:45:14;100520.41;;;24.04;35.22
47785;BME280;35233;55.686;37.848;2023-04-06T07:47:40;100512.50;;;24.01;35.12
47785;BME280;35233;55.686;37.848;2023-04-06T07:50:06;100511.53;;;24.02;35.42
47785;BME280;35233;55.686;37.848;2023-04-06T07:52:32;100522.66;;;24.10;35.17
47785;BME280;35233;55.686;37.848;2023-04-06T07:54:58;100523.63;;;24.09;35.13
47785;BME280;35233;55.686;37.848;2023-04-06T07:57:24;100517.91;;;24.14;35.31
47785;BME280;35233;55.686;37.848;2023-04-06T07:59:50;100517.59;;;24.18;35.29
47785;BME280;35233;55.686;37.848;2023-04-06T08:02:16;100513.03;;;24.19;34.97
47785;BME280;35233;55.686;37.848;2023-04-06T08:04:43;100512.72;;;24.11;35.00
47785;BME280;35233;55.686;37.848;2023-04-06T08:07:09;100513.25;;;24.16;34.84
47785;BME280;35233;55.686;37.848;2023-04-06T08:09:34;100520.28;;;24.18;35.07
47785;BME280;35233;55.686;37.848;2023-04-06T08:12:00;100512.06;;;24.20;34.96
47785;BME280;35233;55.686;37.848;2023-04-06T08:14:26;100513.59;;;24.24;34.88
47785;BME280;35233;55.686;37.848;2023-04-06T08:16:51;100518.84;;;24.26;35.00
47785;BME280;35233;55.686;37.848;2023-04-06T08:19:17;100507.63;;;24.19;35.00
47785;BME280;35233;55.686;37.848;2023-04-06T08:21:44;100514.22;;;24.28;34.95
47785;BME280;35233;55.686;37.848;2023-04-06T08:24:11;100515.94;;;24.29;34.60
47785;BME280;35233;55.686;37.848;2023-04-06T08:26:36;100511.94;;;24.34;34.80
47785;BME280;35233;55.686;37.848;2023-04-06T08:29:02;100508.50;;;24.32;34.75
47785;BME280;35233;55.686;37.848;2023-04-06T08:31:29;100505.66;;;24.34;34.82
47785;BME280;35233;55.686;37.848;2023-04-06T08:33:55;100512.28;;;24.30;34.85
47785;BME280;35233;55.686;37.848;2023-04-06T08:36:39;100512.59;;;24.38;34.43
47785;BME280;35233;55.686;37.848;2023-04-06T08:39:05;100507.19;;;24.38;34.97
47785;BME280;35233;55.686;37.848;2023-04-06T08:41:31;100521.44;;;24.40;34.72
47785;BME280;35233;55.686;37.848;2023-04-06T08:43:59;100509.56;;;24.43;34.64
47785;BME280;35233;55.686;37.848;2023-04-06T08:46:26;100507.19;;;24.38;34.55
47785;BME280;35233;55.686;37.848;2023-04-06T08:48:59;100517.69;;;24.43;34.73
47785;BME280;35233;55.686;37.848;2023-04-06T08:51:26;100505.56;;;24.35;34.51
47785;BME280;35233;55.686;37.848;2023-04-06T08:53:53;100514.03;;;24.44;35.09
47785;BME280;35233;55.686;37.848;2023-04-06T08:56:22;100511.97;;;24.47;34.75
47785;BME280;35233;55.686;37.848;2023-04-06T08:58:49;100512.69;;;24.49;34.95
47785;BME280;35233;55.686;37.848;2023-04-06T09:01:18;100515.28;;;24.51;34.91
47785;BME280;35233;55.686;37.848;2023-04-06T09:03:46;100501.88;;;24.49;34.57
47785;BME280;35233;55.686;37.848;2023-04-06T09:06:13;100509.78;;;24.52;34.98
47785;BME280;35233;55.686;37.848;2023-04-06T09:08:39;100493.91;;;24.48;34.84
47785;BME280;35233;55.686;37.848;2023-04-06T09:11:06;100494.22;;;24.43;34.84
47785;BME280;35233;55.686;37.848;2023-04-06T09:13:31;100489.50;;;24.47;34.92
47785;BME280;35233;55.686;37.848;2023-04-06T09:16:04;100499.94;;;24.51;34.90
47785;BME280;35233;55.686;37.848;2023-04-06T09:18:32;100506.97;;;24.54;34.89
47785;BME280;35233;55.686;37.848;2023-04-06T09:21:02;100500.47;;;24.56;34.69
47785;BME280;35233;55.686;37.848;2023-04-06T09:23:28;100504.03;;;24.57;34.99
47785;BME280;35233;55.686;37.848;2023-04-06T09:26:10;100506.75;;;24.57;34.71
47785;BME280;35233;55.686;37.848;2023-04-06T09:28:52;100513.84;;;24.58;34.68
47785;BME280;35233;55.686;37.848;2023-04-06T09:31:23;100500.47;;;24.56;34.25
47785;BME280;35233;55.686;37.848;2023-04-06T09:33:49;100502.09;;;24.59;34.34
47785;BME280;35233;55.686;37.848;2023-04-06T09:36:15;100507.50;;;24.59;34.56
47785;BME280;35233;55.686;37.848;2023-04-06T09:38:58;100504.66;;;24.60;34.58
47785;BME280;35233;55.686;37.848;2023-04-06T09:41:48;100501.09;;;24.60;34.48
47785;BME280;35233;55.686;37.848;2023-04-06T09:44:13;100495.47;;;24.63;34.43
47785;BME280;35233;55.686;37.848;2023-04-06T09:46:41;100500.16;;;24.61;34.76
47785;BME280;35233;55.686;37.848;2023-04-06T09:49:09;100478.47;;;24.50;34.59
47785;BME280;35233;55.686;37.848;2023-04-06T09:51:54;100496.47;;;24.62;34.54
47785;BME280;35233;55.686;37.848;2023-04-06T09:54:22;100490.19;;;24.61;34.51
47785;BME280;35233;55.686;37.848;2023-04-06T09:56:54;100489.13;;;24.64;34.45
47785;BME280;35233;55.686;37.848;2023-04-06T09:59:41;100493.53;;;24.65;34.82
47785;BME280;35233;55.686;37.848;2023-04-06T10:08:27;100476.34;;;24.66;34.75
47785;BME280;35233;55.686;37.848;2023-04-06T10:10:54;100480.78;;;24.67;34.70
47785;BME280;35233;55.686;37.848;2023-04-06T10:13:20;100480.78;;;24.67;34.40
47785;BME280;35233;55.686;37.848;2023-04-06T10:15:46;100482.50;;;24.68;34.52
47785;BME280;35233;55.686;37.848;2023-04-06T10:18:12;100474.63;;;24.65;34.64
47785;BME280;35233;55.686;37.848;2023-04-06T10:20:39;100471.47;;;24.71;34.71
47785;BME280;35233;55.686;37.848;2023-04-06T10:23:19;100471.91;;;24.65;34.67
47785;BME280;35233;55.686;37.848;2023-04-06T10:25:54;100470.47;;;24.72;34.37
47785;BME280;35233;55.686;37.848;2023-04-06T10:28:20;100474.06;;;24.73;34.67
47785;BME280;35233;55.686;37.848;2023-04-06T10:30:45;100471.59;;;24.70;34.69
47785;BME280;35233;55.686;37.848;2023-04-06T10:33:19;100475.78;;;24.74;34.36
47785;BME280;35233;55.686;37.848;2023-04-06T10:35:45;100473.19;;;24.72;34.73
47785;BME280;35233;55.686;37.848;2023-04-06T10:38:38;100465.81;;;24.74;34.09
47785;BME280;35233;55.686;37.848;2023-04-06T10:41:05;100472.94;;;24.75;34.54
47785;BME280;35233;55.686;37.848;2023-04-06T10:43:35;100472.44;;;24.70;34.59
47785;BME280;35233;55.686;37.848;2023-04-06T10:46:02;100473.72;;;24.77;34.02
47785;BME280;35233;55.686;37.848;2023-04-06T10:48:40;100476.31;;;24.79;34.37
47785;BME280;35233;55.686;37.848;2023-04-06T10:51:11;100470.38;;;24.74;34.41
47785;BME280;35233;55.686;37.848;2023-04-06T10:53:37;100473.06;;;24.74;34.52
47785;BME280;35233;55.686;37.848;2023-04-06T10:56:09;100466.81;;;24.73;34.29
47785;BME280;35233;55.686;37.848;2023-04-06T10:58:36;100472.75;;;24.78;34.07
47785;BME280;35233;55.686;37.848;2023-04-06T11:01:03;100467.44;;;24.77;34.16
47785;BME280;35233;55.686;37.848;2023-04-06T11:03:29;100479.88;;;24.79;34.23
47785;BME280;35233;55.686;37.848;2023-04-06T11:05:55;100469.81;;;24.81;34.40
47785;BME280;35233;55.686;37.848;2023-04-06T11:08:26;100469.69;;;24.83;34.52
47785;BME280;35233;55.686;37.848;2023-04-06T11:11:13;100467.22;;;24.80;34.45
47785;BME280;35233;55.686;37.848;2023-04-06T11:13:50;100471.41;;;24.84;34.44
47785;BME280;35233;55.686;37.848;2023-04-06T11:21:42;100472.28;;;24.84;33.76
47785;BME280;35233;55.686;37.848;2023-04-06T11:26:44;100469.59;;;24.84;33.61
47785;BME280;35233;55.686;37.848;2023-04-06T11:29:11;100464.91;;;24.87;33.72
47785;BME280;35233;55.686;37.848;2023-04-06T11:31:41;100461.47;;;24.84;33.74
47785;BME280;35233;55.686;37.848;2023-04-06T11:34:12;100460.50;;;24.85;33.25
47785;BME280;35233;55.686;37.848;2023-04-06T11:36:41;100459.50;;;24.87;33.28
47785;BME280;35233;55.686;37.848;2023-04-06T11:39:07;100460.59;;;24.84;33.06
47785;BME280;35233;55.686;37.848;2023-04-06T11:41:33;100461.34;;;24.86;33.34
47785;BME280;35233;55.686;37.848;2023-04-06T11:44:01;100454.09;;;24.87;33.37
47785;BME280;35233;55.686;37.848;2023-04-06T11:46:28;100430.59;;;24.76;33.07
47785;BME280;35233;55.686;37.848;2023-04-06T11:49:01;100454.00;;;24.88;33.17
47785;BME280;35233;55.686;37.848;2023-04-06T11:51:27;100455.84;;;24.88;33.17
47785;BME280;35233;55.686;37.848;2023-04-06T11:53:53;100446.97;;;24.85;33.02
47785;BME280;35233;55.686;37.848;2023-04-06T11:56:23;100455.09;;;24.85;32.99
47785;BME280;35233;55.686;37.848;2023-04-06T11:58:49;100455.09;;;24.85;32.65
47785;BME280;35233;55.686;37.848;2023-04-06T12:01:15;100444.72;;;24.79;33.13
47785;BME280;35233;55.686;37.848;2023-04-06T12:03:40;100450.53;;;24.86;33.03
47785;BME280;35233;55.686;37.848;2023-04-06T12:06:06;100442.66;;;24.83;32.58
47785;BME280;35233;55.686;37.848;2023-04-06T12:08:31;100438.34;;;24.80;32.35
47785;BME280;35233;55.686;37.848;2023-04-06T12:10:57;100437.81;;;24.75;32.52
47785;BME280;35233;55.686;37.848;2023-04-06T12:13:24;100444.59;;;24.81;32.44
47785;BME280;35233;55.686;37.848;2023-04-06T12:15:50;100450.66;;;24.84;32.26
47785;BME280;35233;55.686;37.848;2023-04-06T12:18:15;100445.25;;;24.84;32.63
47785;BME280;35233;55.686;37.848;2023-04-06T12:20:41;100444.28;;;24.85;32.79
47785;BME280;35233;55.686;37.848;2023-04-06T12:23:06;100444.38;;;24.84;32.62
47785;BME280;35233;55.686;37.848;2023-04-06T12:25:32;100441.03;;;24.80;32.86
47785;BME280;35233;55.686;37.848;2023-04-06T12:27:57;100444.38;;;24.84;32.93
47785;BME280;35233;55.686;37.848;2023-04-06T12:30:23;100440.81;;;24.83;33.00
47785;BME280;35233;55.686;37.848;2023-04-06T12:32:50;100441.03;;;24.80;32.70
47785;BME280;35233;55.686;37.848;2023-04-06T12:35:15;100446.44;;;24.80;32.80
47785;BME280;35233;55.686;37.848;2023-04-06T12:37:41;100443.75;;;24.80;32.93
47785;BME280;35233;55.686;37.848;2023-04-06T12:40:07;100440.19;;;24.80;33.03
47785;BME280;35233;55.686;37.848;2023-04-06T12:42:35;100439.44;;;24.78;32.81
47785;BME280;35233;55.686;37.848;2023-04-06T12:45:01;100441.19;;;24.79;33.18
47785;BME280;35233;55.686;37.848;2023-04-06T12:47:27;100433.31;;;24.76;33.65
47785;BME280;35233;55.686;37.848;2023-04-06T12:49:53;100448.28;;;24.80;33.84
47785;BME280;35233;55.686;37.848;2023-04-06T12:52:19;100442.03;;;24.79;34.09
47785;BME280;35233;55.686;37.848;2023-04-06T12:54:45;100437.94;;;24.74;34.00
47785;BME280;35233;55.686;37.848;2023-04-06T12:57:11;100440.66;;;24.74;33.88
47785;BME280;35233;55.686;37.848;2023-04-06T12:59:36;100433.75;;;24.70;34.01
47785;BME280;35233;55.686;37.848;2023-04-06T13:02:03;100431.41;;;24.65;34.36
47785;BME280;35233;55.686;37.848;2023-04-06T13:04:30;100437.56;;;24.67;34.03